Time;durP1;ratioP1;P1;durP2;ratioP2;P2;SDS_P1;SDS_P2;PMS_P1;PMS_P2;Temp;Humidity;BMP_temperature;BMP_pressure;BME280_temperature;BME280_humidity;BME280_pressure;Samples;Min_cycle;Max_cycle;Signal;HPM_P1;HPM_P2
2022/05/14 00:00:24;;;;;;;0.85;0.10;;;27.70;36.30;;;;;;5077401;28;20051;-63
2022/05/14 00:02:52;;;;;;;0.20;0.10;;;27.70;36.30;;;;;;5062931;28;20045;-63
2022/05/14 00:05:21;;;;;;;0.35;0.10;;;27.70;36.30;;;;;;5066553;28;20124;-63
2022/05/14 00:07:50;;;;;;;0.20;0.10;;;27.70;36.30;;;;;;5079852;28;20048;-63
2022/05/14 00:10:18;;;;;;;0.30;0.10;;;27.60;36.30;;;;;;5068777;28;20037;-63
2022/05/14 00:15:32;;;;;;;0.40;0.10;;;27.60;36.30;;;;;;5059482;28;20054;-63
2022/05/14 00:17:59;;;;;;;0.50;0.10;;;27.60;36.30;;;;;;5078350;28;20045;-64
2022/05/14 00:20:28;;;;;;;0.28;0.10;;;27.60;36.30;;;;;;5078087;28;20048;-63
2022/05/14 00:22:55;;;;;;;0.40;0.10;;;27.60;36.30;;;;;;5072648;28;20037;-63
2022/05/14 00:25:23;;;;;;;0.90;0.10;;;27.60;36.30;;;;;;5072371;28;20398;-63
2022/05/14 00:27:50;;;;;;;0.20;0.10;;;27.60;36.30;;;;;;5073291;28;20036;-64
2022/05/14 00:30:20;;;;;;;1.30;0.10;;;27.50;36.20;;;;;;5069580;28;20044;-63
2022/05/14 00:32:49;;;;;;;0.35;0.10;;;27.50;36.30;;;;;;5063271;28;20040;-63
2022/05/14 00:35:16;;;;;;;0.63;0.10;;;27.60;36.30;;;;;;5082723;28;20485;-63
2022/05/14 00:37:44;;;;;;;0.85;0.10;;;27.50;36.30;;;;;;5068924;28;20044;-63
2022/05/14 00:40:16;;;;;;;0.75;0.15;;;27.50;36.30;;;;;;5069198;28;20506;-63
2022/05/14 00:42:43;;;;;;;0.20;0.00;;;27.50;36.30;;;;;;5066066;28;20030;-63
2022/05/14 00:45:12;;;;;;;1.23;0.10;;;27.50;36.40;;;;;;5077953;28;20040;-64
2022/05/14 00:47:42;;;;;;;0.30;0.10;;;27.50;36.40;;;;;;5077746;28;20552;-63
2022/05/14 00:50:18;;;;;;;1.27;0.13;;;27.50;36.30;;;;;;5066265;28;20059;-63
2022/05/14 00:52:46;;;;;;;1.58;0.10;;;27.50;36.30;;;;;;5082706;28;20060;-63
2022/05/14 00:55:14;;;;;;;0.68;0.13;;;27.40;36.30;;;;;;5065962;28;20056;-63
2022/05/14 00:57:44;;;;;;;1.02;0.10;;;27.40;36.30;;;;;;5067751;28;20526;-63
2022/05/14 01:00:15;;;;;;;0.15;0.10;;;27.40;36.30;;;;;;5077764;28;20129;-64
2022/05/14 01:02:43;;;;;;;0.85;0.10;;;27.40;36.30;;;;;;5066304;28;20417;-63
2022/05/14 01:05:13;;;;;;;1.00;0.10;;;27.40;36.30;;;;;;5065499;28;20052;-63
2022/05/14 01:07:41;;;;;;;0.35;0.20;;;27.40;36.30;;;;;;5079878;28;20042;-64
2022/05/14 01:10:11;;;;;;;0.68;0.10;;;27.40;36.30;;;;;;5074039;28;20032;-63
2022/05/14 01:12:44;;;;;;;0.45;0.10;;;27.40;36.30;;;;;;5059894;28;20036;-64
2022/05/14 01:15:14;;;;;;;0.10;0.10;;;27.40;36.40;;;;;;5065435;28;20409;-64
2022/05/14 01:17:42;;;;;;;1.08;0.10;;;27.40;36.40;;;;;;5056321;28;20078;-63
2022/05/14 01:20:12;;;;;;;0.68;0.47;;;27.30;36.30;;;;;;5083541;28;20048;-64
2022/05/14 01:22:53;;;;;;;0.30;0.10;;;27.30;36.10;;;;;;5069750;28;20041;-63
2022/05/14 01:28:18;;;;;;;0.10;0.10;;;27.30;36.30;;;;;;5075111;28;20043;-63
2022/05/14 01:30:50;;;;;;;0.40;0.10;;;27.30;36.30;;;;;;5073023;28;20426;-63
2022/05/14 01:33:19;;;;;;;1.10;0.40;;;27.30;36.30;;;;;;5069152;28;20501;-63
2022/05/14 01:35:48;;;;;;;0.30;0.10;;;27.30;36.30;;;;;;5079313;28;20118;-63
2022/05/14 01:38:20;;;;;;;0.10;0.10;;;27.30;36.30;;;;;;5068248;28;20064;-63
2022/05/14 01:40:47;;;;;;;0.10;0.10;;;27.30;36.30;;;;;;5072367;28;20048;-63
2022/05/14 01:43:15;;;;;;;0.55;0.10;;;27.30;36.30;;;;;;5073434;28;20832;-64
2022/05/14 01:45:43;;;;;;;0.25;0.10;;;27.20;36.30;;;;;;5075765;28;20059;-63
2022/05/14 01:48:11;;;;;;;0.25;0.10;;;27.30;36.30;;;;;;5069165;28;20111;-63
2022/05/14 01:50:39;;;;;;;0.22;0.10;;;27.20;36.20;;;;;;5065451;28;20166;-63
2022/05/14 01:53:06;;;;;;;0.32;0.10;;;27.20;36.20;;;;;;5085897;28;20044;-63
2022/05/14 01:55:34;;;;;;;0.70;0.05;;;27.20;36.20;;;;;;5069658;28;20571;-63
2022/05/14 01:58:36;;;;;;;1.02;0.10;;;27.20;36.30;;;;;;5072734;28;20123;-62
2022/05/14 02:00:49;;;;;;;0.38;0.10;;;27.20;36.20;;;;;;5073310;28;20076;-63
2022/05/14 02:03:16;;;;;;;0.43;0.10;;;27.20;36.20;;;;;;5066813;28;20093;-63
2022/05/14 02:05:44;;;;;;;0.77;0.10;;;27.20;36.20;;;;;;5064890;28;20045;-64
2022/05/14 02:08:11;;;;;;;0.30;0.30;;;27.20;36.30;;;;;;5069802;28;20579;-63
2022/05/14 02:10:39;;;;;;;0.25;0.10;;;27.20;36.20;;;;;;5049628;28;20590;-63
2022/05/14 02:13:07;;;;;;;1.40;0.10;;;27.20;36.20;;;;;;5064223;28;20512;-63
2022/05/14 02:15:34;;;;;;;0.50;0.20;;;27.20;36.20;;;;;;5064968;28;20055;-64
2022/05/14 02:18:02;;;;;;;1.75;0.28;;;27.20;36.20;;;;;;5066178;28;20111;-62
2022/05/14 02:20:30;;;;;;;0.20;0.17;;;27.20;36.30;;;;;;5064937;28;20072;-63
2022/05/14 02:22:58;;;;;;;0.30;0.10;;;27.20;36.30;;;;;;5067968;28;20048;-63
2022/05/14 02:25:26;;;;;;;0.22;0.10;;;27.20;36.30;;;;;;5066409;28;20450;-64
2022/05/14 02:27:54;;;;;;;0.00;0.00;;;27.10;36.20;;;;;;5065104;28;20405;-64
2022/05/14 02:30:21;;;;;;;0.95;0.10;;;27.10;36.20;;;;;;5067679;28;20047;-64
2022/05/14 02:32:48;;;;;;;0.28;0.00;;;27.10;36.20;;;;;;5065810;28;20041;-63
2022/05/14 02:35:17;;;;;;;0.00;0.00;;;27.10;36.20;;;;;;5082665;28;20052;-63
2022/05/14 02:37:44;;;;;;;0.52;0.10;;;27.10;36.20;;;;;;5072229;28;20044;-63
2022/05/14 02:40:12;;;;;;;1.65;0.10;;;27.10;36.20;;;;;;5065943;28;20573;-63
2022/05/14 02:42:39;;;;;;;0.00;0.00;;;27.10;36.20;;;;;;5068327;28;20512;-63
2022/05/14 02:45:08;;;;;;;0.10;0.10;;;27.10;36.20;;;;;;5079798;28;20089;-63
2022/05/14 02:47:35;;;;;;;0.43;0.20;;;27.10;36.80;;;;;;5068069;28;20033;-63
2022/05/14 02:50:03;;;;;;;0.43;0.20;;;27.10;36.30;;;;;;5073869;28;20109;-63
2022/05/14 02:52:32;;;;;;;0.20;0.10;;;27.10;36.30;;;;;;5074207;28;20051;-63
2022/05/14 02:55:00;;;;;;;0.20;0.20;;;27.10;36.20;;;;;;5073154;28;20044;-63
2022/05/14 02:57:27;;;;;;;1.65;0.10;;;27.10;36.20;;;;;;5066746;28;20048;-62
2022/05/14 02:59:54;;;;;;;0.93;0.55;;;27.00;36.20;;;;;;5063161;28;20509;-62
2022/05/14 03:02:22;;;;;;;0.10;0.10;;;27.00;36.20;;;;;;5082716;28;20036;-63
2022/05/14 03:04:49;;;;;;;1.38;0.00;;;27.10;36.30;;;;;;5070349;28;20044;-63
2022/05/14 03:07:17;;;;;;;0.20;0.10;;;27.00;36.20;;;;;;5070014;28;20560;-63
2022/05/14 03:09:45;;;;;;;0.60;0.10;;;27.00;36.20;;;;;;5068051;28;20036;-63
2022/05/14 03:12:15;;;;;;;0.65;0.08;;;27.00;36.20;;;;;;5079890;28;20415;-62
2022/05/14 03:14:42;;;;;;;0.55;0.10;;;27.00;36.20;;;;;;5060477;28;20106;-62
2022/05/14 03:17:09;;;;;;;0.50;0.10;;;27.00;36.20;;;;;;5065596;28;20040;-62
2022/05/14 03:19:37;;;;;;;0.68;0.10;;;27.00;36.20;;;;;;5076846;28;20101;-63
2022/05/14 03:22:05;;;;;;;0.10;0.10;;;27.00;36.20;;;;;;5072196;28;20044;-63
2022/05/14 03:24:33;;;;;;;0.10;0.08;;;27.00;36.20;;;;;;5067318;28;20036;-63
2022/05/14 03:27:01;;;;;;;0.38;0.20;;;27.00;36.30;;;;;;5077779;28;20040;-62
2022/05/14 03:29:29;;;;;;;0.65;0.17;;;27.00;36.30;;;;;;5066350;28;20116;-63
2022/05/14 03:31:57;;;;;;;1.35;0.10;;;27.00;36.30;;;;;;5086203;28;20045;-63
2022/05/14 03:34:25;;;;;;;0.47;0.10;;;26.90;36.20;;;;;;5073907;28;20592;-63
2022/05/14 03:36:52;;;;;;;0.55;0.10;;;26.90;36.20;;;;;;5073300;28;20033;-63
2022/05/14 03:39:20;;;;;;;0.80;0.10;;;26.90;36.20;;;;;;5064917;28;20068;-63
2022/05/14 03:41:47;;;;;;;0.75;0.10;;;26.90;36.20;;;;;;5065020;28;20588;-63
2022/05/14 03:44:16;;;;;;;0.90;0.05;;;26.90;36.10;;;;;;5081774;28;20503;-63
2022/05/14 03:46:43;;;;;;;0.32;0.32;;;26.90;36.80;;;;;;5069440;28;20124;-62
2022/05/14 03:49:11;;;;;;;0.10;0.10;;;26.90;36.10;;;;;;5071638;28;20112;-63
2022/05/14 03:51:38;;;;;;;0.10;0.10;;;26.90;36.20;;;;;;5065768;28;20115;-63
2022/05/14 03:54:06;;;;;;;0.47;0.00;;;26.90;36.20;;;;;;5077054;28;20119;-63
2022/05/14 03:56:39;;;;;;;0.98;0.10;;;26.90;36.20;;;;;;5065873;28;20044;-63
2022/05/14 03:59:08;;;;;;;2.85;0.10;;;26.90;36.20;;;;;;5069250;28;20618;-63
2022/05/14 04:01:38;;;;;;;0.40;0.40;;;26.90;36.20;;;;;;5073237;28;20869;-63
2022/05/14 04:04:06;;;;;;;1.95;0.10;;;26.90;36.20;;;;;;5070091;28;20064;-63
2022/05/14 04:06:34;;;;;;;1.38;0.10;;;26.80;36.20;;;;;;5069949;28;20036;-62
2022/05/14 04:09:01;;;;;;;0.10;0.10;;;26.90;36.20;;;;;;5074970;28;20495;-62
2022/05/14 04:11:29;;;;;;;0.65;0.10;;;26.80;36.10;;;;;;5079617;28;20054;-62
2022/05/14 04:13:57;;;;;;;0.65;0.00;;;26.80;36.10;;;;;;5072993;28;20055;-63
2022/05/14 04:16:24;;;;;;;1.45;0.10;;;26.90;36.20;;;;;;5075333;28;20044;-62
2022/05/14 04:18:53;;;;;;;0.25;0.10;;;26.80;36.10;;;;;;5075470;28;20144;-62
2022/05/14 04:21:20;;;;;;;0.45;0.45;;;26.90;36.20;;;;;;5076320;28;20472;-63
2022/05/14 04:23:48;;;;;;;0.32;0.30;;;26.80;36.10;;;;;;5065389;28;20129;-63
2022/05/14 04:26:15;;;;;;;0.10;0.10;;;26.80;36.10;;;;;;5065679;28;20414;-63
2022/05/14 04:28:43;;;;;;;0.20;0.10;;;26.80;36.20;;;;;;5070502;28;20509;-63
2022/05/14 04:31:10;;;;;;;0.30;0.10;;;26.80;36.20;;;;;;5067389;28;20055;-63
2022/05/14 04:33:37;;;;;;;0.05;0.03;;;26.80;36.20;;;;;;5066509;28;20063;-62
2022/05/14 04:36:06;;;;;;;0.95;0.10;;;26.80;36.20;;;;;;5072969;28;20719;-62
2022/05/14 04:38:33;;;;;;;0.13;0.00;;;26.80;36.20;;;;;;5064531;28;20178;-63
2022/05/14 04:41:00;;;;;;;0.03;0.03;;;26.80;36.20;;;;;;5082697;28;20171;-63
2022/05/14 04:43:27;;;;;;;0.75;0.10;;;26.80;36.20;;;;;;5072751;28;20052;-63
2022/05/14 04:45:54;;;;;;;0.65;0.10;;;26.80;36.20;;;;;;5071115;28;20158;-63
2022/05/14 04:48:21;;;;;;;0.10;0.10;;;26.80;36.20;;;;;;5067690;28;20040;-63
2022/05/14 04:50:49;;;;;;;0.22;0.20;;;26.80;36.20;;;;;;5064516;28;20409;-63
2022/05/14 04:53:18;;;;;;;1.45;0.00;;;26.80;36.70;;;;;;5064434;28;20409;-63
2022/05/14 04:55:47;;;;;;;0.30;0.05;;;26.80;36.20;;;;;;5074465;28;20102;-63
2022/05/14 04:58:14;;;;;;;0.32;0.13;;;26.80;36.20;;;;;;5066879;28;20067;-63
2022/05/14 05:00:42;;;;;;;0.40;0.10;;;26.80;36.20;;;;;;5068799;28;20450;-62
2022/05/14 05:03:18;;;;;;;0.10;0.10;;;26.70;36.20;;;;;;5079751;28;20399;-64
2022/05/14 05:05:46;;;;;;;1.75;0.10;;;26.70;36.20;;;;;;5068596;28;20052;-63
2022/05/14 05:08:14;;;;;;;0.20;0.10;;;26.70;36.20;;;;;;5058984;28;20102;-63
2022/05/14 05:10:43;;;;;;;0.10;0.10;;;26.80;36.30;;;;;;5078990;28;20044;-61
2022/05/14 05:13:12;;;;;;;0.35;0.10;;;26.80;36.30;;;;;;5073280;28;20045;-64
2022/05/14 05:15:40;;;;;;;0.73;0.20;;;26.70;36.20;;;;;;5078205;28;20051;-64
2022/05/14 05:18:08;;;;;;;1.15;0.30;;;26.80;36.30;;;;;;5081499;28;20044;-63
2022/05/14 05:20:37;;;;;;;0.10;0.10;;;26.80;36.30;;;;;;5066052;28;20065;-63
2022/05/14 05:23:05;;;;;;;0.50;0.20;;;26.70;36.20;;;;;;5076005;28;20052;-64
2022/05/14 05:25:32;;;;;;;2.70;0.10;;;26.70;36.30;;;;;;5078805;28;20036;-63
2022/05/14 05:28:01;;;;;;;2.05;0.28;;;26.70;36.20;;;;;;5074684;28;20558;-63
2022/05/14 05:30:28;;;;;;;0.63;0.10;;;26.70;36.20;;;;;;5069681;28;20563;-63
2022/05/14 05:32:55;;;;;;;1.38;0.10;;;26.70;36.20;;;;;;5067620;28;20116;-64
2022/05/14 05:35:22;;;;;;;0.10;0.10;;;26.70;36.30;;;;;;5084061;28;20094;-62
2022/05/14 05:37:49;;;;;;;0.43;0.20;;;26.70;36.30;;;;;;5073549;28;20066;-62
2022/05/14 05:40:17;;;;;;;0.57;0.32;;;26.70;36.30;;;;;;5067271;28;20473;-63
2022/05/14 05:42:45;;;;;;;0.35;0.35;;;26.70;36.30;;;;;;5070962;28;20039;-63
2022/05/14 05:45:16;;;;;;;1.38;0.10;;;26.70;36.30;;;;;;5080773;28;20385;-64
2022/05/14 05:47:43;;;;;;;0.65;0.10;;;26.70;36.30;;;;;;5066892;28;20036;-63
2022/05/14 05:50:12;;;;;;;0.10;0.10;;;26.70;36.30;;;;;;5067945;28;20068;-62
2022/05/14 05:52:39;;;;;;;0.30;0.13;;;26.70;36.30;;;;;;5079429;28;20516;-63
2022/05/14 05:57:52;;;;;;;;;;;26.70;36.30;;;;;;5072656;28;20048;-63
2022/05/14 06:00:23;;;;;;;2.17;0.10;;;26.70;36.30;;;;;;5066259;28;19960;-63
2022/05/14 06:02:50;;;;;;;0.63;0.10;;;26.60;36.40;;;;;;5080976;28;20037;-64
2022/05/14 06:05:18;;;;;;;0.22;0.10;;;26.70;36.40;;;;;;5071803;28;20037;-64
2022/05/14 06:07:45;;;;;;;0.10;0.10;;;26.70;36.40;;;;;;5074645;28;20052;-63
2022/05/14 06:10:15;;;;;;;0.17;0.10;;;26.70;36.40;;;;;;5054974;28;20462;-63
2022/05/14 06:12:42;;;;;;;4.38;0.10;;;26.70;36.40;;;;;;5075979;28;20086;-62
2022/05/14 06:15:13;;;;;;;0.20;0.10;;;26.70;36.40;;;;;;5070396;28;20110;-63
2022/05/14 06:17:43;;;;;;;0.10;0.05;;;26.70;36.30;;;;;;5080851;28;20095;-63
2022/05/14 06:20:14;;;;;;;0.40;0.10;;;26.80;36.40;;;;;;5080052;28;20040;-64
2022/05/14 06:22:42;;;;;;;1.30;0.10;;;26.70;36.30;;;;;;5067961;28;20127;-62
2022/05/14 06:25:10;;;;;;;1.08;0.20;;;26.80;36.40;;;;;;5073851;28;20035;-62
2022/05/14 06:27:38;;;;;;;0.63;0.10;;;26.80;36.30;;;;;;5076497;28;20048;-62
2022/05/14 06:30:06;;;;;;;0.20;0.10;;;26.80;36.30;;;;;;5068030;28;20040;-62
2022/05/14 06:32:33;;;;;;;0.17;0.17;;;26.80;36.30;;;;;;5067199;28;20068;-62
2022/05/14 06:35:01;;;;;;;0.32;0.10;;;26.80;36.30;;;;;;5084288;28;20131;-62
2022/05/14 06:37:28;;;;;;;0.13;0.13;;;26.80;36.30;;;;;;5068612;28;20135;-62
2022/05/14 06:39:56;;;;;;;1.85;0.10;;;26.80;36.30;;;;;;5066037;28;20039;-62
2022/05/14 06:42:23;;;;;;;0.43;0.10;;;26.80;36.20;;;;;;5070133;28;20072;-62
2022/05/14 06:44:51;;;;;;;0.32;0.10;;;26.90;36.30;;;;;;5078572;28;20037;-62
2022/05/14 06:47:19;;;;;;;0.93;0.13;;;26.80;36.20;;;;;;5065102;28;20052;-63
2022/05/14 06:49:46;;;;;;;1.70;0.10;;;26.90;36.20;;;;;;5073994;28;20033;-63
2022/05/14 06:52:17;;;;;;;1.40;0.00;;;26.90;36.20;;;;;;5070134;28;20132;-63
2022/05/14 06:54:46;;;;;;;0.32;0.10;;;26.90;36.10;;;;;;5061930;28;20805;-63
2022/05/14 06:57:15;;;;;;;0.10;0.10;;;26.90;36.10;;;;;;5076360;28;20105;-64
2022/05/14 06:59:42;;;;;;;0.20;0.20;;;26.90;36.10;;;;;;5065485;28;20052;-64
2022/05/14 07:02:12;;;;;;;1.45;0.10;;;26.90;36.10;;;;;;5076016;28;20044;-63
2022/05/14 07:07:26;;;;;;;0.38;0.10;;;26.90;36.00;;;;;;5076047;28;20514;-63
2022/05/14 07:09:55;;;;;;;1.00;0.15;;;26.90;36.10;;;;;;5076227;28;20396;-64
2022/05/14 07:12:23;;;;;;;0.75;0.10;;;26.90;36.00;;;;;;5077987;28;20400;-63
2022/05/14 07:14:50;;;;;;;0.40;0.10;;;27.00;36.10;;;;;;5068239;28;20067;-63
2022/05/14 07:17:17;;;;;;;0.52;0.10;;;27.00;36.00;;;;;;5083364;28;20048;-64
2022/05/14 07:19:45;;;;;;;1.05;0.47;;;27.00;36.00;;;;;;5079890;28;20127;-64
2022/05/14 07:22:13;;;;;;;0.20;0.10;;;27.00;35.90;;;;;;5070735;28;20049;-63
2022/05/14 07:24:43;;;;;;;1.65;0.20;;;27.00;35.90;;;;;;5068567;28;20398;-64
2022/05/14 07:27:11;;;;;;;0.10;0.10;;;27.00;35.90;;;;;;5078623;28;20066;-64
2022/05/14 07:29:40;;;;;;;0.60;0.10;;;27.00;35.90;;;;;;5065355;28;20182;-64
2022/05/14 07:32:09;;;;;;;0.35;0.10;;;27.00;35.90;;;;;;5066677;28;20131;-63
2022/05/14 07:34:36;;;;;;;0.75;0.10;;;27.00;35.90;;;;;;5075497;28;20512;-63
2022/05/14 07:37:06;;;;;;;1.52;0.43;;;27.10;36.00;;;;;;5072060;28;20036;-64
2022/05/14 07:39:38;;;;;;;0.65;0.10;;;27.00;35.90;;;;;;5064306;28;20036;-64
2022/05/14 07:42:14;;;;;;;0.77;0.10;;;27.10;36.00;;;;;;5064704;28;20421;-63
2022/05/14 07:44:45;;;;;;;1.50;0.85;;;27.10;36.00;;;;;;5063968;28;20397;-59
2022/05/14 07:47:14;;;;;;;0.90;0.10;;;27.10;35.90;;;;;;5067912;28;20072;-62
2022/05/14 07:49:42;;;;;;;0.10;0.10;;;27.10;35.90;;;;;;5072211;28;20041;-62
2022/05/14 07:52:10;;;;;;;1.05;0.20;;;27.10;35.90;;;;;;5070403;28;20044;-63
2022/05/14 07:54:37;;;;;;;0.30;0.10;;;27.10;35.90;;;;;;5073771;28;20564;-63
2022/05/14 07:57:06;;;;;;;0.10;0.10;;;27.10;35.90;;;;;;5069426;28;20068;-63
2022/05/14 07:59:34;;;;;;;1.05;0.50;;;27.20;35.90;;;;;;5065240;28;20052;-63
2022/05/14 08:02:02;;;;;;;0.30;0.10;;;27.10;35.80;;;;;;5083736;28;20531;-61
2022/05/14 08:04:29;;;;;;;0.45;0.10;;;27.10;35.80;;;;;;5069271;28;20056;-63
2022/05/14 08:06:56;;;;;;;0.20;0.10;;;27.20;35.90;;;;;;5070487;28;20460;-62
2022/05/14 08:09:23;;;;;;;0.98;0.20;;;27.20;35.90;;;;;;5066685;28;20033;-62
2022/05/14 08:11:52;;;;;;;1.38;0.10;;;27.20;35.90;;;;;;5078136;28;20103;-63
2022/05/14 08:14:19;;;;;;;0.47;0.45;;;27.20;35.90;;;;;;5068949;28;20044;-63
2022/05/14 08:16:47;;;;;;;0.40;0.10;;;27.20;36.50;;;;;;5082490;28;20118;-62
2022/05/14 08:19:14;;;;;;;0.08;0.08;;;27.20;35.90;;;;;;5075313;28;20452;-62
2022/05/14 08:24:34;;;;;;;1.10;0.20;;;27.20;35.80;;;;;;5061137;28;20044;-62
2022/05/14 08:27:04;;;;;;;0.15;0.10;;;27.20;35.80;;;;;;5076877;28;20838;-63
2022/05/14 08:29:31;;;;;;;1.10;0.10;;;27.20;35.90;;;;;;5066642;28;20050;-62
2022/05/14 08:32:00;;;;;;;1.58;0.73;;;27.20;35.80;;;;;;5074295;28;20430;-62
2022/05/14 08:34:27;;;;;;;2.00;0.20;;;27.30;35.90;;;;;;5077263;28;20067;-61
2022/05/14 08:36:54;;;;;;;1.20;0.10;;;27.30;36.20;;;;;;5072918;28;20036;-61
2022/05/14 08:39:22;;;;;;;1.75;0.10;;;27.30;35.80;;;;;;5068681;28;20040;-60
2022/05/14 08:41:51;;;;;;;1.25;0.20;;;27.30;35.80;;;;;;5069514;28;20087;-62
2022/05/14 08:44:21;;;;;;;0.52;0.20;;;27.30;35.80;;;;;;5083337;28;20062;-62
2022/05/14 08:46:54;;;;;;;1.35;0.10;;;27.30;35.80;;;;;;5074079;28;20040;-61
2022/05/14 08:49:33;;;;;;;1.40;0.20;;;27.30;35.70;;;;;;5075065;28;20044;-60
2022/05/14 08:52:07;;;;;;;0.38;0.10;;;27.30;35.70;;;;;;5073739;28;20040;-62
2022/05/14 08:54:34;;;;;;;2.80;0.30;;;27.30;35.70;;;;;;5078204;28;20125;-64
2022/05/14 08:57:11;;;;;;;0.80;0.10;;;27.30;35.70;;;;;;5072267;28;20021;-63
2022/05/14 08:59:55;;;;;;;0.28;0.10;;;27.30;35.70;;;;;;5066959;28;20051;-63
2022/05/14 09:02:27;;;;;;;1.38;0.43;;;27.30;35.70;;;;;;5083108;28;20518;-63
2022/05/14 09:05:01;;;;;;;2.00;0.20;;;27.30;35.70;;;;;;5075098;28;20106;-63
2022/05/14 09:07:28;;;;;;;0.38;0.28;;;27.30;35.60;;;;;;5073045;28;20036;-62
2022/05/14 09:09:58;;;;;;;0.88;0.52;;;27.30;35.60;;;;;;5072344;28;20042;-63
2022/05/14 09:12:28;;;;;;;1.27;0.40;;;27.40;35.60;;;;;;5080287;28;20059;-63
2022/05/14 09:14:59;;;;;;;1.15;0.20;;;27.40;35.60;;;;;;5070542;28;20120;-63
2022/05/14 09:17:29;;;;;;;0.80;0.17;;;27.40;35.60;;;;;;5079956;28;20581;-63
2022/05/14 09:19:57;;;;;;;2.28;0.10;;;27.40;35.60;;;;;;5085506;28;20107;-63
2022/05/14 09:22:36;;;;;;;0.40;0.15;;;27.40;35.60;;;;;;5071966;28;20527;-63
2022/05/14 09:25:22;;;;;;;0.35;0.17;;;27.40;35.50;;;;;;5074635;28;20147;-63
2022/05/14 09:27:54;;;;;;;1.63;0.45;;;27.40;35.50;;;;;;5076508;28;20049;-63
2022/05/14 09:30:28;;;;;;;1.52;0.28;;;27.40;35.60;;;;;;5071146;28;20048;-63
2022/05/14 09:32:55;;;;;;;0.52;0.10;;;27.40;35.50;;;;;;5067601;28;20060;-63
2022/05/14 09:35:24;;;;;;;1.10;0.20;;;27.40;35.50;;;;;;5084086;28;20046;-62
2022/05/14 09:37:57;;;;;;;1.13;0.10;;;27.40;35.50;;;;;;5074004;28;20072;-63
2022/05/14 09:40:28;;;;;;;0.25;0.10;;;27.40;35.50;;;;;;5067590;28;20447;-63
2022/05/14 09:43:08;;;;;;;0.95;0.35;;;27.40;35.40;;;;;;5073226;28;20046;-63
2022/05/14 09:45:38;;;;;;;0.30;0.15;;;27.40;35.40;;;;;;5077087;28;20098;-64
2022/05/14 09:48:16;;;;;;;0.52;0.10;;;27.40;35.40;;;;;;5079211;28;20064;-63
2022/05/14 09:50:46;;;;;;;0.60;0.32;;;27.50;35.40;;;;;;5060812;28;20478;-62
2022/05/14 09:53:28;;;;;;;0.10;0.10;;;27.50;35.40;;;;;;5084758;28;20566;-64
2022/05/14 09:56:19;;;;;;;1.13;0.38;;;27.50;35.40;;;;;;5070051;28;20044;-64
2022/05/14 09:58:59;;;;;;;2.65;0.10;;;27.50;35.40;;;;;;5069482;28;20047;-63
2022/05/14 10:01:32;;;;;;;1.02;0.20;;;27.50;35.40;;;;;;5075284;28;20044;-62
2022/05/14 10:04:18;;;;;;;2.47;0.43;;;27.50;35.30;;;;;;5074983;28;20041;-63
2022/05/14 10:06:50;;;;;;;0.25;0.20;;;27.50;35.30;;;;;;5071900;28;20044;-63
2022/05/14 10:09:27;;;;;;;0.10;0.10;;;27.50;35.30;;;;;;5066139;28;20115;-63
2022/05/14 10:12:04;;;;;;;1.10;0.30;;;27.50;35.30;;;;;;5080490;28;20106;-63
2022/05/14 10:14:50;;;;;;;1.08;0.20;;;27.50;35.20;;;;;;5068588;28;20433;-63
2022/05/14 10:17:31;;;;;;;0.32;0.17;;;27.60;35.20;;;;;;5084792;28;20198;-63
2022/05/14 10:20:26;;;;;;;1.00;0.55;;;27.60;35.20;;;;;;5084624;28;20130;-64
2022/05/14 10:29:20;;;;;;;1.38;0.30;;;27.50;35.20;;;;;;5011421;28;20041;-63
2022/05/14 10:31:54;;;;;;;1.63;0.20;;;27.60;35.20;;;;;;5016838;28;20081;-63
2022/05/14 10:34:34;;;;;;;0.20;0.20;;;27.60;35.20;;;;;;5016593;28;20104;-63
2022/05/14 10:37:09;;;;;;;1.38;0.20;;;27.60;35.20;;;;;;4997818;28;20076;-63
2022/05/14 10:39:42;;;;;;;0.22;0.20;;;27.60;35.20;;;;;;5010143;28;20605;-64
2022/05/14 10:42:17;;;;;;;1.05;0.10;;;27.60;35.10;;;;;;5008854;28;20147;-63
2022/05/14 10:44:51;;;;;;;1.95;0.13;;;27.70;35.20;;;;;;5001751;28;20050;-63
2022/05/14 10:47:20;;;;;;;1.55;0.10;;;27.70;35.20;;;;;;5006470;28;20049;-63
2022/05/14 10:49:54;;;;;;;0.10;0.10;;;27.60;35.10;;;;;;5016297;28;20042;-64
2022/05/14 10:52:22;;;;;;;0.65;0.30;;;27.70;35.10;;;;;;5014254;28;20077;-63
2022/05/14 10:54:49;;;;;;;0.20;0.10;;;27.70;35.10;;;;;;5016731;28;20454;-63
2022/05/14 10:57:46;;;;;;;0.25;0.17;;;27.70;35.10;;;;;;5009487;28;20049;-63
2022/05/14 11:00:38;;;;;;;0.20;0.20;;;27.70;35.00;;;;;;4931096;29;20044;-63
2022/05/14 11:03:14;;;;;;;0.75;0.10;;;27.80;35.10;;;;;;4953258;28;20042;-63
2022/05/14 11:06:06;;;;;;;0.75;0.10;;;27.80;35.10;;;;;;4976924;28;20039;-64
2022/05/14 11:08:35;;;;;;;0.10;0.10;;;27.80;35.10;;;;;;4973314;28;20746;-63
2022/05/14 11:11:06;;;;;;;0.65;0.10;;;27.70;35.00;;;;;;4966637;28;20058;-64
2022/05/14 11:13:36;;;;;;;0.65;0.10;;;27.80;35.10;;;;;;4968602;28;20086;-63
2022/05/14 11:16:06;;;;;;;0.10;0.10;;;27.80;35.10;;;;;;4977586;28;20056;-63
2022/05/14 11:18:45;;;;;;;0.82;0.20;;;27.80;35.10;;;;;;4958086;28;20050;-62
2022/05/14 11:21:13;;;;;;;0.50;0.10;;;27.80;35.00;;;;;;4961907;28;20113;-62
2022/05/14 11:23:56;;;;;;;0.52;0.10;;;27.80;35.00;;;;;;4964989;28;20079;-62
2022/05/14 11:26:23;;;;;;;0.63;0.20;;;27.90;35.10;;;;;;4978925;28;20138;-62
2022/05/14 11:29:01;;;;;;;0.45;0.10;;;27.90;35.10;;;;;;4970135;28;20102;-63
2022/05/14 11:31:31;;;;;;;0.40;0.10;;;27.90;35.00;;;;;;4964516;28;20047;-63
2022/05/14 11:34:00;;;;;;;0.88;0.10;;;27.90;35.00;;;;;;4969795;28;20476;-63
2022/05/14 11:36:29;;;;;;;1.65;0.10;;;27.90;35.00;;;;;;5046888;28;20036;-63
2022/05/14 11:39:11;;;;;;;0.15;0.10;;;28.00;35.10;;;;;;5082484;28;20032;-63
2022/05/14 11:41:41;;;;;;;4.50;0.38;;;28.10;35.10;;;;;;5085420;28;20047;-63
2022/05/14 11:44:09;;;;;;;0.20;0.10;;;28.00;35.00;;;;;;5105277;28;20044;-62
2022/05/14 11:46:43;;;;;;;0.57;0.10;;;28.10;35.10;;;;;;5087823;28;20063;-64
2022/05/14 11:49:22;;;;;;;0.10;0.10;;;28.10;35.10;;;;;;5092590;28;20412;-63
2022/05/14 11:52:00;;;;;;;0.47;0.25;;;28.10;35.00;;;;;;5095560;28;20061;-63
2022/05/14 11:54:32;;;;;;;0.10;0.10;;;28.20;35.10;;;;;;5096689;28;20496;-63
2022/05/14 11:57:03;;;;;;;0.30;0.10;;;28.20;35.00;;;;;;5088672;28;20040;-63
2022/05/14 11:59:40;;;;;;;1.38;0.10;;;28.20;35.00;;;;;;5086214;28;20051;-62
2022/05/14 12:02:14;;;;;;;0.10;0.10;;;28.20;34.90;;;;;;5105283;28;20046;-63
2022/05/14 12:04:45;;;;;;;0.10;0.10;;;28.30;35.00;;;;;;5088612;28;20067;-63
2022/05/14 12:07:41;;;;;;;0.20;0.10;;;28.30;34.90;;;;;;5079869;28;20075;-63
2022/05/14 12:10:13;;;;;;;;;;;28.30;34.90;;;;;;5091899;28;20032;-63
2022/05/14 12:12:49;;;;;;;0.17;0.10;;;28.30;34.90;;;;;;5088554;28;19920;-63
2022/05/14 12:15:21;;;;;;;;;;;28.30;35.00;;;;;;5079092;28;20505;-63
2022/05/14 12:17:50;;;;;;;0.10;0.10;;;28.30;34.90;;;;;;5078179;28;20405;-63
2022/05/14 12:20:21;;;;;;;0.10;0.10;;;28.30;35.60;;;;;;5081223;28;20043;-62
2022/05/14 12:22:56;;;;;;;0.10;0.10;;;28.40;34.90;;;;;;5092606;28;20052;-63
2022/05/14 12:25:34;;;;;;;;;;;28.40;34.80;;;;;;5095129;28;20039;-62
2022/05/14 12:28:01;;;;;;;0.65;0.10;;;28.40;34.80;;;;;;5092299;28;19924;-63
2022/05/14 12:33:15;;;;;;;1.20;0.10;;;28.50;34.80;;;;;;5084878;28;20093;-63
2022/05/14 12:35:44;;;;;;;0.20;0.10;;;28.50;34.80;;;;;;5082870;28;20044;-63
2022/05/14 12:38:13;;;;;;;0.30;0.10;;;28.50;34.70;;;;;;5074453;28;20045;-63
2022/05/14 12:40:41;;;;;;;0.65;0.10;;;28.60;34.70;;;;;;5085919;28;20036;-63
2022/05/14 12:43:13;;;;;;;0.30;0.10;;;28.70;34.70;;;;;;5091527;28;20165;-63
2022/05/14 12:45:44;;;;;;;1.55;0.20;;;28.70;34.60;;;;;;5072551;28;20458;-63
2022/05/14 12:48:13;;;;;;;0.15;0.15;;;28.80;34.60;;;;;;5083994;28;20044;-63
2022/05/14 12:50:50;;;;;;;0.10;0.10;;;28.80;34.60;;;;;;5084005;28;20044;-63
2022/05/14 12:53:18;;;;;;;1.23;0.30;;;28.80;34.40;;;;;;5099607;28;20482;-62
2022/05/14 12:55:48;;;;;;;0.20;0.00;;;28.90;34.40;;;;;;5089346;28;20044;-63
2022/05/14 12:58:17;;;;;;;0.28;0.10;;;28.90;34.40;;;;;;5089270;28;20045;-63
2022/05/14 13:00:49;;;;;;;0.32;0.10;;;28.90;34.30;;;;;;5083939;28;20385;-63
2022/05/14 13:03:23;;;;;;;1.15;0.30;;;29.00;34.30;;;;;;5098298;28;20168;-64
2022/05/14 13:05:56;;;;;;;0.32;0.10;;;29.00;34.20;;;;;;5086671;28;20028;-64
2022/05/14 13:08:25;;;;;;;1.38;0.30;;;29.00;34.10;;;;;;5102892;28;20496;-64
2022/05/14 13:10:57;;;;;;;0.38;0.10;;;29.10;34.10;;;;;;5090953;28;20071;-63
2022/05/14 13:13:35;;;;;;;0.30;0.10;;;29.10;34.00;;;;;;5086972;28;20135;-62
2022/05/14 13:16:12;;;;;;;0.52;0.10;;;29.20;34.00;;;;;;5091689;28;20039;-60
2022/05/14 13:18:43;;;;;;;0.73;0.10;;;29.20;33.90;;;;;;5087030;28;20044;-62
2022/05/14 13:21:18;;;;;;;0.20;0.10;;;29.20;33.90;;;;;;5088385;28;20077;-62
2022/05/14 13:23:54;;;;;;;1.63;0.08;;;29.30;33.80;;;;;;5083802;28;20044;-62
2022/05/14 13:26:31;;;;;;;0.90;0.10;;;29.30;33.80;;;;;;5105522;28;20075;-63